sensor_id;sensor_type;location;lat;lon;timestamp;temperature;humidity
79018;DHT22;68421;44.714;37.756;2023-03-23T00:00:13;20.06;57.32
79018;DHT22;68421;44.714;37.756;2023-03-23T00:01:17;20.09;57.31
79018;DHT22;68421;44.714;37.756;2023-03-23T00:02:26;20.06;57.22
79018;DHT22;68421;44.714;37.756;2023-03-23T00:03:27;20.06;57.32
79018;DHT22;68421;44.714;37.756;2023-03-23T00:04:29;20.06;57.10
79018;DHT22;68421;44.714;37.756;2023-03-23T00:05:31;20.06;57.13
79018;DHT22;68421;44.714;37.756;2023-03-23T00:06:32;20.07;57.28
79018;DHT22;68421;44.714;37.756;2023-03-23T00:07:34;20.06;57.19
79018;DHT22;68421;44.714;37.756;2023-03-23T00:08:39;20.06;57.25
79018;DHT22;68421;44.714;37.756;2023-03-23T00:09:48;20.05;57.32
79018;DHT22;68421;44.714;37.756;2023-03-23T00:10:54;20.07;57.22
79018;DHT22;68421;44.714;37.756;2023-03-23T00:11:59;20.06;57.29
79018;DHT22;68421;44.714;37.756;2023-03-23T00:13:06;20.06;57.27
79018;DHT22;68421;44.714;37.756;2023-03-23T00:14:09;20.05;57.27
79018;DHT22;68421;44.714;37.756;2023-03-23T00:15:13;20.05;57.34
79018;DHT22;68421;44.714;37.756;2023-03-23T00:16:19;20.05;57.30
79018;DHT22;68421;44.714;37.756;2023-03-23T00:17:21;20.04;57.22
79018;DHT22;68421;44.714;37.756;2023-03-23T00:18:24;20.04;57.29
79018;DHT22;68421;44.714;37.756;2023-03-23T00:19:26;20.04;57.24
79018;DHT22;68421;44.714;37.756;2023-03-23T00:20:27;20.05;57.26
79018;DHT22;68421;44.714;37.756;2023-03-23T00:21:36;20.05;57.31
79018;DHT22;68421;44.714;37.756;2023-03-23T00:22:37;20.02;57.16
79018;DHT22;68421;44.714;37.756;2023-03-23T00:23:39;20.04;57.29
79018;DHT22;68421;44.714;37.756;2023-03-23T00:24:41;20.03;57.36
79018;DHT22;68421;44.714;37.756;2023-03-23T00:25:45;20.04;57.40
79018;DHT22;68421;44.714;37.756;2023-03-23T00:26:48;20.04;57.39
79018;DHT22;68421;44.714;37.756;2023-03-23T00:27:50;20.04;57.28
79018;DHT22;68421;44.714;37.756;2023-03-23T00:28:51;20.04;57.39
79018;DHT22;68421;44.714;37.756;2023-03-23T00:29:53;20.03;57.40
79018;DHT22;68421;44.714;37.756;2023-03-23T00:31:05;20.03;57.35
79018;DHT22;68421;44.714;37.756;2023-03-23T00:32:09;20.04;57.35
79018;DHT22;68421;44.714;37.756;2023-03-23T00:33:13;20.03;57.37
79018;DHT22;68421;44.714;37.756;2023-03-23T00:34:22;20.03;57.37
79018;DHT22;68421;44.714;37.756;2023-03-23T00:35:25;20.05;57.43
79018;DHT22;68421;44.714;37.756;2023-03-23T00:36:28;20.02;57.45
79018;DHT22;68421;44.714;37.756;2023-03-23T00:37:30;20.03;57.35
79018;DHT22;68421;44.714;37.756;2023-03-23T00:38:31;20.04;57.42
79018;DHT22;68421;44.714;37.756;2023-03-23T00:39:33;20.02;57.37
79018;DHT22;68421;44.714;37.756;2023-03-23T00:40:37;20.03;57.42
79018;DHT22;68421;44.714;37.756;2023-03-23T00:41:38;20.03;57.32
79018;DHT22;68421;44.714;37.756;2023-03-23T00:42:40;20.02;57.39
79018;DHT22;68421;44.714;37.756;2023-03-23T00:43:41;20.03;57.39
79018;DHT22;68421;44.714;37.756;2023-03-23T00:44:43;20.03;57.37
79018;DHT22;68421;44.714;37.756;2023-03-23T00:45:45;20.03;57.37
79018;DHT22;68421;44.714;37.756;2023-03-23T00:46:53;20.03;57.40
79018;DHT22;68421;44.714;37.756;2023-03-23T00:47:57;20.02;57.41
79018;DHT22;68421;44.714;37.756;2023-03-23T00:49:05;20.03;57.28
79018;DHT22;68421;44.714;37.756;2023-03-23T00:50:07;20.03;57.30
79018;DHT22;68421;44.714;37.756;2023-03-23T00:51:08;20.02;57.37
79018;DHT22;68421;44.714;37.756;2023-03-23T00:52:11;20.01;57.44
79018;DHT22;68421;44.714;37.756;2023-03-23T00:53:13;20.03;57.48
79018;DHT22;68421;44.714;37.756;2023-03-23T00:54:14;20.03;57.72
79018;DHT22;68421;44.714;37.756;2023-03-23T00:55:16;20.04;57.61
79018;DHT22;68421;44.714;37.756;2023-03-23T00:56:17;20.02;57.51
79018;DHT22;68421;44.714;37.756;2023-03-23T00:57:19;20.04;57.23
79018;DHT22;68421;44.714;37.756;2023-03-23T00:58:20;20.03;57.30
79018;DHT22;68421;44.714;37.756;2023-03-23T00:59:22;20.04;57.34
79018;DHT22;68421;44.714;37.756;2023-03-23T01:00:25;20.04;57.35
79018;DHT22;68421;44.714;37.756;2023-03-23T01:01:27;20.04;57.05
79018;DHT22;68421;44.714;37.756;2023-03-23T01:02:28;20.06;57.39
79018;DHT22;68421;44.714;37.756;2023-03-23T01:03:29;20.06;57.47
79018;DHT22;68421;44.714;37.756;2023-03-23T01:04:33;20.06;56.99
79018;DHT22;68421;44.714;37.756;2023-03-23T01:05:39;20.05;57.17
79018;DHT22;68421;44.714;37.756;2023-03-23T01:06:42;20.05;57.13
79018;DHT22;68421;44.714;37.756;2023-03-23T01:07:44;20.06;57.26
79018;DHT22;68421;44.714;37.756;2023-03-23T01:08:45;20.06;57.10
79018;DHT22;68421;44.714;37.756;2023-03-23T01:09:47;20.07;57.13
79018;DHT22;68421;44.714;37.756;2023-03-23T01:10:49;20.06;57.00
79018;DHT22;68421;44.714;37.756;2023-03-23T01:11:53;20.06;57.21
79018;DHT22;68421;44.714;37.756;2023-03-23T01:12:56;20.06;57.16
79018;DHT22;68421;44.714;37.756;2023-03-23T01:13:58;20.05;56.96
79018;DHT22;68421;44.714;37.756;2023-03-23T01:14:59;20.06;57.00
79018;DHT22;68421;44.714;37.756;2023-03-23T01:16:01;20.05;57.01
79018;DHT22;68421;44.714;37.756;2023-03-23T01:17:03;20.06;57.19
79018;DHT22;68421;44.714;37.756;2023-03-23T01:18:05;20.06;57.12
79018;DHT22;68421;44.714;37.756;2023-03-23T01:19:06;20.06;56.95
79018;DHT22;68421;44.714;37.756;2023-03-23T01:20:09;20.06;57.19
79018;DHT22;68421;44.714;37.756;2023-03-23T01:21:14;20.05;56.97
79018;DHT22;68421;44.714;37.756;2023-03-23T01:22:18;20.06;56.92
79018;DHT22;68421;44.714;37.756;2023-03-23T01:23:19;20.06;56.85
79018;DHT22;68421;44.714;37.756;2023-03-23T01:24:21;20.05;56.85
79018;DHT22;68421;44.714;37.756;2023-03-23T01:25:22;20.06;56.96
79018;DHT22;68421;44.714;37.756;2023-03-23T01:26:25;20.06;57.13
79018;DHT22;68421;44.714;37.756;2023-03-23T01:27:27;20.06;56.97
79018;DHT22;68421;44.714;37.756;2023-03-23T01:28:28;20.05;57.15
79018;DHT22;68421;44.714;37.756;2023-03-23T01:29:30;20.06;56.86
79018;DHT22;68421;44.714;37.756;2023-03-23T01:30:31;20.05;57.17
79018;DHT22;68421;44.714;37.756;2023-03-23T01:31:33;20.06;57.11
79018;DHT22;68421;44.714;37.756;2023-03-23T01:32:35;20.06;57.05
79018;DHT22;68421;44.714;37.756;2023-03-23T01:33:37;20.05;56.75
79018;DHT22;68421;44.714;37.756;2023-03-23T01:34:39;20.05;56.94
79018;DHT22;68421;44.714;37.756;2023-03-23T01:35:40;20.05;57.21
79018;DHT22;68421;44.714;37.756;2023-03-23T01:36:41;20.05;56.87
79018;DHT22;68421;44.714;37.756;2023-03-23T01:37:43;20.05;56.93
79018;DHT22;68421;44.714;37.756;2023-03-23T01:38:45;20.06;57.03
79018;DHT22;68421;44.714;37.756;2023-03-23T01:39:47;20.05;56.93
79018;DHT22;68421;44.714;37.756;2023-03-23T01:40:49;20.05;56.90
79018;DHT22;68421;44.714;37.756;2023-03-23T01:41:50;20.04;57.00
79018;DHT22;68421;44.714;37.756;2023-03-23T01:42:55;20.05;57.06
79018;DHT22;68421;44.714;37.756;2023-03-23T01:44:04;20.06;57.20
79018;DHT22;68421;44.714;37.756;2023-03-23T01:45:27;20.05;57.08
79018;DHT22;68421;44.714;37.756;2023-03-23T01:46:31;20.03;56.73
79018;DHT22;68421;44.714;37.756;2023-03-23T01:47:33;20.04;56.86
79018;DHT22;68421;44.714;37.756;2023-03-23T01:48:37;20.04;57.07
79018;DHT22;68421;44.714;37.756;2023-03-23T01:49:46;20.03;56.92
79018;DHT22;68421;44.714;37.756;2023-03-23T01:50:59;20.03;56.74
79018;DHT22;68421;44.714;37.756;2023-03-23T01:52:05;20.03;57.03
79018;DHT22;68421;44.714;37.756;2023-03-23T01:53:08;20.03;56.95
79018;DHT22;68421;44.714;37.756;2023-03-23T01:54:14;20.04;57.07
79018;DHT22;68421;44.714;37.756;2023-03-23T01:55:21;20.03;57.15
79018;DHT22;68421;44.714;37.756;2023-03-23T01:56:29;20.03;57.05
79018;DHT22;68421;44.714;37.756;2023-03-23T01:57:34;20.00;56.76
79018;DHT22;68421;44.714;37.756;2023-03-23T01:58:38;20.02;56.89
79018;DHT22;68421;44.714;37.756;2023-03-23T01:59:42;20.02;56.76
79018;DHT22;68421;44.714;37.756;2023-03-23T02:00:58;20.02;56.89
79018;DHT22;68421;44.714;37.756;2023-03-23T02:02:03;20.01;56.97
79018;DHT22;68421;44.714;37.756;2023-03-23T02:03:05;20.01;56.74
79018;DHT22;68421;44.714;37.756;2023-03-23T02:04:09;20.02;56.81
79018;DHT22;68421;44.714;37.756;2023-03-23T02:05:15;20.02;56.78
79018;DHT22;68421;44.714;37.756;2023-03-23T02:06:20;20.02;57.02
79018;DHT22;68421;44.714;37.756;2023-03-23T02:07:40;20.02;56.82
79018;DHT22;68421;44.714;37.756;2023-03-23T02:08:43;20.02;56.94
79018;DHT22;68421;44.714;37.756;2023-03-23T02:09:45;20.02;56.78
79018;DHT22;68421;44.714;37.756;2023-03-23T02:10:47;20.03;56.95
79018;DHT22;68421;44.714;37.756;2023-03-23T02:11:49;20.02;56.98
79018;DHT22;68421;44.714;37.756;2023-03-23T02:12:53;20.02;56.72
79018;DHT22;68421;44.714;37.756;2023-03-23T02:13:55;20.02;56.91
79018;DHT22;68421;44.714;37.756;2023-03-23T02:14:57;20.03;56.80
79018;DHT22;68421;44.714;37.756;2023-03-23T02:16:07;20.01;56.62
79018;DHT22;68421;44.714;37.756;2023-03-23T02:18:28;20.02;56.95
79018;DHT22;68421;44.714;37.756;2023-03-23T02:24:13;20.02;56.89
79018;DHT22;68421;44.714;37.756;2023-03-23T02:26:26;20.00;56.76
79018;DHT22;68421;44.714;37.756;2023-03-23T02:33:40;20.01;57.04
79018;DHT22;68421;44.714;37.756;2023-03-23T02:35:05;19.99;56.93
79018;DHT22;68421;44.714;37.756;2023-03-23T02:36:32;20.00;57.11
79018;DHT22;68421;44.714;37.756;2023-03-23T02:37:46;19.99;57.07
79018;DHT22;68421;44.714;37.756;2023-03-23T02:39:18;19.99;56.85
79018;DHT22;68421;44.714;37.756;2023-03-23T02:40:30;19.99;56.68
79018;DHT22;68421;44.714;37.756;2023-03-23T02:41:41;20.00;56.77
79018;DHT22;68421;44.714;37.756;2023-03-23T02:42:48;20.00;56.90
79018;DHT22;68421;44.714;37.756;2023-03-23T02:43:52;19.99;56.70
79018;DHT22;68421;44.714;37.756;2023-03-23T02:44:54;20.01;56.93
79018;DHT22;68421;44.714;37.756;2023-03-23T02:45:58;19.99;57.22
79018;DHT22;68421;44.714;37.756;2023-03-23T02:47:03;19.98;57.00
79018;DHT22;68421;44.714;37.756;2023-03-23T02:48:07;19.98;56.97
79018;DHT22;68421;44.714;37.756;2023-03-23T02:49:12;19.98;56.52
79018;DHT22;68421;44.714;37.756;2023-03-23T02:50:16;19.98;56.55
79018;DHT22;68421;44.714;37.756;2023-03-23T02:51:19;19.99;56.66
79018;DHT22;68421;44.714;37.756;2023-03-23T02:52:30;20.00;56.89
79018;DHT22;68421;44.714;37.756;2023-03-23T02:53:35;19.99;56.87
79018;DHT22;68421;44.714;37.756;2023-03-23T02:54:39;19.98;56.61
79018;DHT22;68421;44.714;37.756;2023-03-23T02:55:43;19.98;56.63
79018;DHT22;68421;44.714;37.756;2023-03-23T02:56:50;19.98;56.69
79018;DHT22;68421;44.714;37.756;2023-03-23T02:57:57;19.99;56.61
79018;DHT22;68421;44.714;37.756;2023-03-23T02:59:01;19.98;56.43
79018;DHT22;68421;44.714;37.756;2023-03-23T03:00:07;19.99;56.81
79018;DHT22;68421;44.714;37.756;2023-03-23T03:02:36;19.98;56.55
79018;DHT22;68421;44.714;37.756;2023-03-23T03:03:41;19.99;56.46
79018;DHT22;68421;44.714;37.756;2023-03-23T03:05:11;19.98;56.68
79018;DHT22;68421;44.714;37.756;2023-03-23T03:07:59;19.97;56.61
79018;DHT22;68421;44.714;37.756;2023-03-23T03:10:41;19.98;56.53
79018;DHT22;68421;44.714;37.756;2023-03-23T03:11:48;19.98;56.55
79018;DHT22;68421;44.714;37.756;2023-03-23T03:14:15;19.97;56.50
79018;DHT22;68421;44.714;37.756;2023-03-23T03:15:40;19.97;56.66
79018;DHT22;68421;44.714;37.756;2023-03-23T03:18:15;19.98;56.74
79018;DHT22;68421;44.714;37.756;2023-03-23T03:20:25;19.97;56.70
79018;DHT22;68421;44.714;37.756;2023-03-23T03:21:29;19.98;56.76
79018;DHT22;68421;44.714;37.756;2023-03-23T03:22:33;19.96;56.68
79018;DHT22;68421;44.714;37.756;2023-03-23T03:23:39;19.97;56.49
79018;DHT22;68421;44.714;37.756;2023-03-23T03:24:43;19.97;56.54
79018;DHT22;68421;44.714;37.756;2023-03-23T03:25:47;19.96;56.52
79018;DHT22;68421;44.714;37.756;2023-03-23T03:26:57;19.96;56.52
79018;DHT22;68421;44.714;37.756;2023-03-23T03:28:09;19.96;56.66
79018;DHT22;68421;44.714;37.756;2023-03-23T03:29:18;19.96;57.54
79018;DHT22;68421;44.714;37.756;2023-03-23T03:30:27;19.97;57.10
79018;DHT22;68421;44.714;37.756;2023-03-23T03:31:38;19.96;56.90
79018;DHT22;68421;44.714;37.756;2023-03-23T03:32:47;19.95;56.68
79018;DHT22;68421;44.714;37.756;2023-03-23T03:33:51;19.92;56.50
79018;DHT22;68421;44.714;37.756;2023-03-23T03:34:52;19.90;56.53
79018;DHT22;68421;44.714;37.756;2023-03-23T03:35:55;19.89;56.35
79018;DHT22;68421;44.714;37.756;2023-03-23T03:36:59;19.87;56.59
79018;DHT22;68421;44.714;37.756;2023-03-23T03:38:11;19.96;56.74
79018;DHT22;68421;44.714;37.756;2023-03-23T03:39:14;20.03;56.25
79018;DHT22;68421;44.714;37.756;2023-03-23T03:40:20;20.11;55.98
79018;DHT22;68421;44.714;37.756;2023-03-23T03:41:22;20.17;55.63
79018;DHT22;68421;44.714;37.756;2023-03-23T03:42:23;20.24;55.51
79018;DHT22;68421;44.714;37.756;2023-03-23T03:43:27;20.27;55.39
79018;DHT22;68421;44.714;37.756;2023-03-23T03:44:28;20.30;55.23
79018;DHT22;68421;44.714;37.756;2023-03-23T03:45:30;20.34;55.24
79018;DHT22;68421;44.714;37.756;2023-03-23T03:46:36;20.36;55.00
79018;DHT22;68421;44.714;37.756;2023-03-23T03:47:37;20.43;55.97
79018;DHT22;68421;44.714;37.756;2023-03-23T03:48:39;20.42;55.55
79018;DHT22;68421;44.714;37.756;2023-03-23T03:49:41;20.39;55.92
79018;DHT22;68421;44.714;37.756;2023-03-23T03:50:42;20.35;55.16
79018;DHT22;68421;44.714;37.756;2023-03-23T03:51:43;20.35;55.33
79018;DHT22;68421;44.714;37.756;2023-03-23T03:52:52;20.31;55.34
79018;DHT22;68421;44.714;37.756;2023-03-23T03:53:55;20.29;55.49
79018;DHT22;68421;44.714;37.756;2023-03-23T03:54:57;20.27;55.95
79018;DHT22;68421;44.714;37.756;2023-03-23T03:55:59;20.27;56.02
79018;DHT22;68421;44.714;37.756;2023-03-23T03:57:06;20.25;55.97
79018;DHT22;68421;44.714;37.756;2023-03-23T03:58:27;20.21;56.16
79018;DHT22;68421;44.714;37.756;2023-03-23T03:59:52;20.21;56.13
79018;DHT22;68421;44.714;37.756;2023-03-23T04:01:14;20.20;56.05
79018;DHT22;68421;44.714;37.756;2023-03-23T04:02:17;20.18;55.87
79018;DHT22;68421;44.714;37.756;2023-03-23T04:03:22;20.19;56.53
79018;DHT22;68421;44.714;37.756;2023-03-23T04:04:36;20.21;56.98
79018;DHT22;68421;44.714;37.756;2023-03-23T04:05:37;20.21;56.55
79018;DHT22;68421;44.714;37.756;2023-03-23T04:06:38;20.24;56.03
79018;DHT22;68421;44.714;37.756;2023-03-23T04:07:40;20.24;56.01
79018;DHT22;68421;44.714;37.756;2023-03-23T04:08:43;20.24;56.01
79018;DHT22;68421;44.714;37.756;2023-03-23T04:09:46;20.25;57.31
79018;DHT22;68421;44.714;37.756;2023-03-23T04:10:50;20.30;56.44
79018;DHT22;68421;44.714;37.756;2023-03-23T04:11:53;20.30;55.95
79018;DHT22;68421;44.714;37.756;2023-03-23T04:13:21;20.34;56.50
79018;DHT22;68421;44.714;37.756;2023-03-23T04:14:49;20.33;57.35
79018;DHT22;68421;44.714;37.756;2023-03-23T04:15:51;20.33;56.18
79018;DHT22;68421;44.714;37.756;2023-03-23T04:16:52;20.32;55.80
79018;DHT22;68421;44.714;37.756;2023-03-23T04:17:58;20.29;55.81
79018;DHT22;68421;44.714;37.756;2023-03-23T04:19:01;20.28;55.87
79018;DHT22;68421;44.714;37.756;2023-03-23T04:20:04;20.26;55.95
79018;DHT22;68421;44.714;37.756;2023-03-23T04:21:12;20.27;56.04
79018;DHT22;68421;44.714;37.756;2023-03-23T04:22:15;20.26;55.85
79018;DHT22;68421;44.714;37.756;2023-03-23T04:23:20;20.24;55.97
79018;DHT22;68421;44.714;37.756;2023-03-23T04:24:23;20.24;56.54
79018;DHT22;68421;44.714;37.756;2023-03-23T04:25:25;20.31;56.90
79018;DHT22;68421;44.714;37.756;2023-03-23T04:26:29;20.37;55.97
79018;DHT22;68421;44.714;37.756;2023-03-23T04:27:35;20.40;57.03
79018;DHT22;68421;44.714;37.756;2023-03-23T04:28:40;20.43;56.52
79018;DHT22;68421;44.714;37.756;2023-03-23T04:30:21;20.46;57.18
79018;DHT22;68421;44.714;37.756;2023-03-23T04:31:43;20.56;55.92
79018;DHT22;68421;44.714;37.756;2023-03-23T04:33:00;20.54;55.61
79018;DHT22;68421;44.714;37.756;2023-03-23T04:34:03;20.49;55.55
79018;DHT22;68421;44.714;37.756;2023-03-23T04:35:13;20.44;55.41
79018;DHT22;68421;44.714;37.756;2023-03-23T04:36:26;20.40;55.45
79018;DHT22;68421;44.714;37.756;2023-03-23T04:37:37;20.35;55.61
79018;DHT22;68421;44.714;37.756;2023-03-23T04:38:39;20.30;55.74
79018;DHT22;68421;44.714;37.756;2023-03-23T04:39:48;20.29;56.26
79018;DHT22;68421;44.714;37.756;2023-03-23T04:40:52;20.32;56.25
79018;DHT22;68421;44.714;37.756;2023-03-23T04:42:04;20.32;55.98
79018;DHT22;68421;44.714;37.756;2023-03-23T04:43:23;20.31;55.87
79018;DHT22;68421;44.714;37.756;2023-03-23T04:44:50;20.31;55.78
79018;DHT22;68421;44.714;37.756;2023-03-23T04:46:02;20.31;56.01
79018;DHT22;68421;44.714;37.756;2023-03-23T04:47:06;20.32;56.08
79018;DHT22;68421;44.714;37.756;2023-03-23T04:48:16;20.30;56.06
79018;DHT22;68421;44.714;37.756;2023-03-23T04:49:28;20.29;56.20
79018;DHT22;68421;44.714;37.756;2023-03-23T04:50:43;20.29;56.23
79018;DHT22;68421;44.714;37.756;2023-03-23T04:51:53;20.27;56.26
79018;DHT22;68421;44.714;37.756;2023-03-23T04:53:04;20.28;56.27
79018;DHT22;68421;44.714;37.756;2023-03-23T04:54:06;20.28;56.19
79018;DHT22;68421;44.714;37.756;2023-03-23T04:55:08;20.29;56.23
79018;DHT22;68421;44.714;37.756;2023-03-23T04:56:12;20.29;56.36
79018;DHT22;68421;44.714;37.756;2023-03-23T04:57:18;20.29;56.26
79018;DHT22;68421;44.714;37.756;2023-03-23T04:58:35;20.29;56.45
79018;DHT22;68421;44.714;37.756;2023-03-23T05:00:12;20.29;56.20
79018;DHT22;68421;44.714;37.756;2023-03-23T05:01:21;20.30;56.38
79018;DHT22;68421;44.714;37.756;2023-03-23T05:02:37;20.29;56.34
79018;DHT22;68421;44.714;37.756;2023-03-23T05:03:41;20.28;56.32
79018;DHT22;68421;44.714;37.756;2023-03-23T05:04:42;20.28;56.26
79018;DHT22;68421;44.714;37.756;2023-03-23T05:05:47;20.29;56.29
79018;DHT22;68421;44.714;37.756;2023-03-23T05:06:54;20.28;56.52
79018;DHT22;68421;44.714;37.756;2023-03-23T05:08:01;20.29;56.63
79018;DHT22;68421;44.714;37.756;2023-03-23T05:09:06;20.30;57.43
79018;DHT22;68421;44.714;37.756;2023-03-23T05:10:09;20.29;56.42
79018;DHT22;68421;44.714;37.756;2023-03-23T05:11:11;20.30;56.63
79018;DHT22;68421;44.714;37.756;2023-03-23T05:12:16;20.32;56.57
79018;DHT22;68421;44.714;37.756;2023-03-23T05:13:39;20.31;56.73
79018;DHT22;68421;44.714;37.756;2023-03-23T05:14:42;20.31;56.56
79018;DHT22;68421;44.714;37.756;2023-03-23T05:15:47;20.29;56.58
79018;DHT22;68421;44.714;37.756;2023-03-23T05:16:48;20.30;56.49
79018;DHT22;68421;44.714;37.756;2023-03-23T05:17:53;20.28;56.52
79018;DHT22;68421;44.714;37.756;2023-03-23T05:18:55;20.28;56.55
79018;DHT22;68421;44.714;37.756;2023-03-23T05:20:03;20.27;56.52
79018;DHT22;68421;44.714;37.756;2023-03-23T05:21:26;20.26;56.61
79018;DHT22;68421;44.714;37.756;2023-03-23T05:22:29;20.26;56.55
79018;DHT22;68421;44.714;37.756;2023-03-23T05:23:33;20.26;56.57
79018;DHT22;68421;44.714;37.756;2023-03-23T05:24:47;20.26;56.61
79018;DHT22;68421;44.714;37.756;2023-03-23T05:25:55;20.25;56.56
79018;DHT22;68421;44.714;37.756;2023-03-23T05:26:57;20.25;56.63
79018;DHT22;68421;44.714;37.756;2023-03-23T05:28:04;20.25;56.64
79018;DHT22;68421;44.714;37.756;2023-03-23T05:29:21;20.24;56.55
79018;DHT22;68421;44.714;37.756;2023-03-23T05:30:31;20.25;56.53
79018;DHT22;68421;44.714;37.756;2023-03-23T05:31:33;20.24;56.59
79018;DHT22;68421;44.714;37.756;2023-03-23T05:32:35;20.22;56.58
79018;DHT22;68421;44.714;37.756;2023-03-23T05:33:53;20.24;56.64
79018;DHT22;68421;44.714;37.756;2023-03-23T05:35:01;20.22;56.59
79018;DHT22;68421;44.714;37.756;2023-03-23T05:36:05;20.21;56.66
79018;DHT22;68421;44.714;37.756;2023-03-23T05:37:28;20.22;56.63
79018;DHT22;68421;44.714;37.756;2023-03-23T05:38:40;20.21;56.65
79018;DHT22;68421;44.714;37.756;2023-03-23T05:39:46;20.21;56.64
79018;DHT22;68421;44.714;37.756;2023-03-23T05:40:47;20.22;56.63
79018;DHT22;68421;44.714;37.756;2023-03-23T05:41:52;20.22;56.60
79018;DHT22;68421;44.714;37.756;2023-03-23T05:42:54;20.22;56.59
79018;DHT22;68421;44.714;37.756;2023-03-23T05:44:04;20.21;56.64
79018;DHT22;68421;44.714;37.756;2023-03-23T05:45:20;20.21;56.64
79018;DHT22;68421;44.714;37.756;2023-03-23T05:46:24;20.20;56.64
79018;DHT22;68421;44.714;37.756;2023-03-23T05:47:27;20.20;56.62
79018;DHT22;68421;44.714;37.756;2023-03-23T05:48:33;20.21;56.58
79018;DHT22;68421;44.714;37.756;2023-03-23T05:49:35;20.20;56.63
79018;DHT22;68421;44.714;37.756;2023-03-23T05:50:37;20.20;56.68
79018;DHT22;68421;44.714;37.756;2023-03-23T05:51:39;20.20;56.61
79018;DHT22;68421;44.714;37.756;2023-03-23T05:52:41;20.21;56.67
79018;DHT22;68421;44.714;37.756;2023-03-23T05:53:45;20.20;56.64
79018;DHT22;68421;44.714;37.756;2023-03-23T05:54:50;20.19;56.64
79018;DHT22;68421;44.714;37.756;2023-03-23T05:55:53;20.20;56.64
79018;DHT22;68421;44.714;37.756;2023-03-23T05:57:08;20.20;56.63
79018;DHT22;68421;44.714;37.756;2023-03-23T05:58:32;20.21;56.61
79018;DHT22;68421;44.714;37.756;2023-03-23T05:59:34;20.21;56.68
79018;DHT22;68421;44.714;37.756;2023-03-23T06:00:37;20.19;56.66
79018;DHT22;68421;44.714;37.756;2023-03-23T06:01:52;20.20;56.63
79018;DHT22;68421;44.714;37.756;2023-03-23T06:02:56;20.19;56.64
79018;DHT22;68421;44.714;37.756;2023-03-23T06:04:05;20.20;56.63
79018;DHT22;68421;44.714;37.756;2023-03-23T06:05:15;20.19;56.63
79018;DHT22;68421;44.714;37.756;2023-03-23T06:06:20;20.20;56.65
79018;DHT22;68421;44.714;37.756;2023-03-23T06:07:28;20.20;56.64
79018;DHT22;68421;44.714;37.756;2023-03-23T06:08:35;20.19;56.68
79018;DHT22;68421;44.714;37.756;2023-03-23T06:09:38;20.20;56.65
79018;DHT22;68421;44.714;37.756;2023-03-23T06:10:59;20.19;56.70
79018;DHT22;68421;44.714;37.756;2023-03-23T06:12:02;20.19;56.68
79018;DHT22;68421;44.714;37.756;2023-03-23T06:13:29;20.19;56.68
79018;DHT22;68421;44.714;37.756;2023-03-23T06:14:38;20.18;56.72
79018;DHT22;68421;44.714;37.756;2023-03-23T06:15:40;20.19;56.71
79018;DHT22;68421;44.714;37.756;2023-03-23T06:16:52;20.18;56.72
79018;DHT22;68421;44.714;37.756;2023-03-23T06:17:53;20.18;56.66
79018;DHT22;68421;44.714;37.756;2023-03-23T06:19:02;20.17;56.73
79018;DHT22;68421;44.714;37.756;2023-03-23T06:20:10;20.19;56.69
79018;DHT22;68421;44.714;37.756;2023-03-23T06:21:14;20.19;56.61
79018;DHT22;68421;44.714;37.756;2023-03-23T06:22:24;20.19;56.76
79018;DHT22;68421;44.714;37.756;2023-03-23T06:23:29;20.18;56.66
79018;DHT22;68421;44.714;37.756;2023-03-23T06:24:31;20.19;56.71
79018;DHT22;68421;44.714;37.756;2023-03-23T06:25:34;20.18;56.80
79018;DHT22;68421;44.714;37.756;2023-03-23T06:26:38;20.19;56.68
79018;DHT22;68421;44.714;37.756;2023-03-23T06:27:44;20.19;56.78
79018;DHT22;68421;44.714;37.756;2023-03-23T06:28:47;20.20;56.65
79018;DHT22;68421;44.714;37.756;2023-03-23T06:29:51;20.20;56.72
79018;DHT22;68421;44.714;37.756;2023-03-23T06:30:52;20.20;56.73
79018;DHT22;68421;44.714;37.756;2023-03-23T06:31:56;20.21;56.77
79018;DHT22;68421;44.714;37.756;2023-03-23T06:33:01;20.19;56.80
79018;DHT22;68421;44.714;37.756;2023-03-23T06:34:24;20.20;56.71
79018;DHT22;68421;44.714;37.756;2023-03-23T06:36:02;20.18;56.73
79018;DHT22;68421;44.714;37.756;2023-03-23T06:37:23;20.20;56.70
79018;DHT22;68421;44.714;37.756;2023-03-23T06:38:54;20.21;56.69
79018;DHT22;68421;44.714;37.756;2023-03-23T06:40:05;20.21;56.77
79018;DHT22;68421;44.714;37.756;2023-03-23T06:41:13;20.20;56.72
79018;DHT22;68421;44.714;37.756;2023-03-23T06:42:15;20.21;56.68
79018;DHT22;68421;44.714;37.756;2023-03-23T06:43:22;20.20;56.78
79018;DHT22;68421;44.714;37.756;2023-03-23T06:44:41;20.19;56.74
79018;DHT22;68421;44.714;37.756;2023-03-23T06:45:46;20.21;56.72
79018;DHT22;68421;44.714;37.756;2023-03-23T06:47:27;20.21;56.72
79018;DHT22;68421;44.714;37.756;2023-03-23T06:48:31;20.21;56.71
79018;DHT22;68421;44.714;37.756;2023-03-23T06:49:34;20.22;56.70
79018;DHT22;68421;44.714;37.756;2023-03-23T06:50:56;20.21;56.77
79018;DHT22;68421;44.714;37.756;2023-03-23T06:52:00;20.21;56.71
79018;DHT22;68421;44.714;37.756;2023-03-23T06:53:05;20.19;56.82
79018;DHT22;68421;44.714;37.756;2023-03-23T06:54:06;20.21;56.77
79018;DHT22;68421;44.714;37.756;2023-03-23T06:55:14;20.20;56.79
79018;DHT22;68421;44.714;37.756;2023-03-23T06:56:15;20.20;56.81
79018;DHT22;68421;44.714;37.756;2023-03-23T06:57:18;20.21;56.79
79018;DHT22;68421;44.714;37.756;2023-03-23T06:58:20;20.21;56.73
79018;DHT22;68421;44.714;37.756;2023-03-23T06:59:25;20.21;56.81
79018;DHT22;68421;44.714;37.756;2023-03-23T07:00:27;20.21;56.81
79018;DHT22;68421;44.714;37.756;2023-03-23T07:01:28;20.21;56.79
79018;DHT22;68421;44.714;37.756;2023-03-23T07:02:34;20.21;56.74
79018;DHT22;68421;44.714;37.756;2023-03-23T07:03:38;20.24;56.77
79018;DHT22;68421;44.714;37.756;2023-03-23T07:04:43;20.25;56.77
79018;DHT22;68421;44.714;37.756;2023-03-23T07:05:52;20.21;56.76
79018;DHT22;68421;44.714;37.756;2023-03-23T07:06:56;20.24;56.81
79018;DHT22;68421;44.714;37.756;2023-03-23T07:07:58;20.22;56.83
79018;DHT22;68421;44.714;37.756;2023-03-23T07:09:11;20.22;56.76
79018;DHT22;68421;44.714;37.756;2023-03-23T07:10:13;20.21;56.83
79018;DHT22;68421;44.714;37.756;2023-03-23T07:11:14;20.24;56.83
79018;DHT22;68421;44.714;37.756;2023-03-23T07:12:16;20.24;56.72
79018;DHT22;68421;44.714;37.756;2023-03-23T07:13:21;20.24;56.77
79018;DHT22;68421;44.714;37.756;2023-03-23T07:14:26;20.25;56.71